Time;durP1;ratioP1;P1;durP2;ratioP2;P2;SDS_P1;SDS_P2;PMS_P1;PMS_P2;Temp;Humidity;BMP_temperature;BMP_pressure;BME280_temperature;BME280_humidity;BME280_pressure;Samples;Min_cycle;Max_cycle;Signal;HPM_P1;HPM_P2
2023/02/28 00:01:20;;;;;;;14.80;4.23;;;;;;;;;;4380201;32;317108;-88
2023/02/28 00:03:48;;;;;;;8.63;3.97;;;;;;;;;;4389561;32;318283;-88
2023/02/28 00:06:15;;;;;;;7.67;4.53;;;;;;;;;;4378699;32;317222;-87
2023/02/28 00:08:42;;;;;;;12.93;4.37;;;;;;;;;;4388370;32;316644;-88
2023/02/28 00:11:11;;;;;;;11.83;4.00;;;;;;;;;;4387641;32;354633;-88
2023/02/28 00:13:40;;;;;;;11.30;4.70;;;;;;;;;;4380982;32;317483;-88
2023/02/28 00:16:10;;;;;;;11.27;4.80;;;;;;;;;;4393505;32;317782;-88
2023/02/28 00:18:37;;;;;;;13.17;4.63;;;;;;;;;;4380360;32;318226;-88
2023/02/28 00:21:06;;;;;;;7.93;4.43;;;;;;;;;;4388852;32;317520;-89
2023/02/28 00:23:34;;;;;;;9.60;5.13;;;;;;;;;;4378643;32;317160;-89
2023/02/28 00:26:00;;;;;;;13.93;5.07;;;;;;;;;;4389835;32;316561;-88
2023/02/28 00:28:27;;;;;;;11.50;4.50;;;;;;;;;;4379819;32;318119;-88
2023/02/28 00:30:54;;;;;;;12.43;4.23;;;;;;;;;;4388593;32;318165;-88
2023/02/28 00:33:22;;;;;;;15.17;4.63;;;;;;;;;;4378451;32;318502;-88
2023/02/28 00:35:48;;;;;;;13.47;3.43;;;;;;;;;;4389431;32;318186;-88
2023/02/28 00:38:17;;;;;;;10.43;3.67;;;;;;;;;;4379667;32;318502;-88
2023/02/28 00:40:44;;;;;;;8.73;3.10;;;;;;;;;;4388711;32;318310;-88
2023/02/28 00:43:10;;;;;;;8.53;3.33;;;;;;;;;;4389046;32;316459;-88
2023/02/28 00:45:37;;;;;;;9.40;2.90;;;;;;;;;;4379504;32;316600;-88
2023/02/28 00:48:05;;;;;;;10.80;3.80;;;;;;;;;;4388980;32;317154;-88
2023/02/28 00:50:32;;;;;;;7.30;3.27;;;;;;;;;;4379503;32;318386;-88
2023/02/28 00:52:58;;;;;;;13.63;4.37;;;;;;;;;;4389088;32;316525;-88
2023/02/28 00:55:27;;;;;;;8.40;3.73;;;;;;;;;;4378414;32;317598;-88
2023/02/28 00:57:53;;;;;;;11.37;3.90;;;;;;;;;;4389164;32;316435;-88
2023/02/28 01:00:20;;;;;;;14.27;4.97;;;;;;;;;;4379087;32;318524;-88
2023/02/28 01:02:47;;;;;;;12.20;6.10;;;;;;;;;;4389355;32;317588;-88
2023/02/28 01:05:14;;;;;;;25.10;8.77;;;;;;;;;;4378753;32;318253;-88
2023/02/28 01:07:41;;;;;;;19.03;7.03;;;;;;;;;;4388648;32;318107;-88
2023/02/28 01:10:09;;;;;;;21.40;10.70;;;;;;;;;;4389745;32;317454;-89
2023/02/28 01:12:37;;;;;;;24.40;11.00;;;;;;;;;;4376768;32;351107;-89
2023/02/28 01:15:05;;;;;;;22.73;11.30;;;;;;;;;;4388714;32;318659;-89
2023/02/28 01:17:32;;;;;;;19.63;12.50;;;;;;;;;;4378444;32;339490;-89
2023/02/28 01:19:58;;;;;;;18.07;10.53;;;;;;;;;;4389380;32;319361;-89
2023/02/28 01:22:25;;;;;;;23.50;12.43;;;;;;;;;;4379020;32;318557;-88
2023/02/28 01:24:52;;;;;;;20.77;11.97;;;;;;;;;;4392452;32;319176;-89
2023/02/28 01:27:19;;;;;;;20.60;11.27;;;;;;;;;;4376878;32;319008;-88
2023/02/28 01:29:47;;;;;;;34.03;12.23;;;;;;;;;;4387209;32;318755;-89
2023/02/28 01:32:14;;;;;;;21.43;9.67;;;;;;;;;;4377275;32;318607;-88
2023/02/28 01:34:41;;;;;;;18.33;8.00;;;;;;;;;;4387960;32;317662;-90
2023/02/28 01:37:08;;;;;;;14.50;7.73;;;;;;;;;;4387637;32;354050;-89
2023/02/28 01:39:35;;;;;;;11.33;6.33;;;;;;;;;;4380353;32;318047;-88
2023/02/28 01:42:01;;;;;;;8.07;6.37;;;;;;;;;;4388747;32;318098;-89
2023/02/28 01:45:02;;;;;;;13.17;6.77;;;;;;;;;;4377730;32;316641;-89
2023/02/28 01:47:33;;;;;;;19.03;9.20;;;;;;;;;;4378031;32;318271;-89
2023/02/28 01:50:02;;;;;;;18.47;10.63;;;;;;;;;;4387203;32;329986;-89
2023/02/28 01:52:30;;;;;;;17.90;9.40;;;;;;;;;;4378287;32;318448;-89
2023/02/28 01:55:02;;;;;;;23.10;9.23;;;;;;;;;;4389066;32;318361;-89
2023/02/28 01:57:37;;;;;;;19.43;9.57;;;;;;;;;;4378769;32;318464;-89
2023/02/28 02:00:09;;;;;;;15.30;8.13;;;;;;;;;;4388778;32;317442;-89
2023/02/28 02:02:37;;;;;;;15.43;7.73;;;;;;;;;;4378804;32;318590;-89
2023/02/28 02:05:07;;;;;;;12.63;6.63;;;;;;;;;;4388444;32;317920;-88
2023/02/28 02:07:37;;;;;;;12.43;6.50;;;;;;;;;;4381250;32;318495;-88
2023/02/28 02:10:07;;;;;;;17.97;6.47;;;;;;;;;;4390866;32;317215;-89
2023/02/28 02:12:46;;;;;;;9.77;5.70;;;;;;;;;;4380363;32;317676;-89
2023/02/28 02:15:20;;;;;;;16.10;5.90;;;;;;;;;;4391850;32;317387;-88
2023/02/28 02:17:52;;;;;;;12.67;6.87;;;;;;;;;;4388186;32;417392;-89
2023/02/28 02:20:52;;;;;;;15.60;6.20;;;;;;;;;;4395712;32;318918;-88
2023/02/28 02:23:59;;;;;;;17.50;7.23;;;;;;;;;;4393255;32;317809;-88
2023/02/28 02:26:48;;;;;;;23.77;6.73;;;;;;;;;;4396402;32;318255;-89
2023/02/28 02:29:54;;;;;;;15.93;6.13;;;;;;;;;;4395561;32;318180;-89
2023/02/28 02:33:04;;;;;;;11.97;5.50;;;;;;;;;;4368377;32;318310;-89
2023/02/28 02:35:35;;;;;;;18.93;6.20;;;;;;;;;;4395340;32;330503;-89
2023/02/28 02:38:09;;;;;;;31.23;10.47;;;;;;;;;;4406076;32;317764;-89
2023/02/28 02:40:43;;;;;;;20.20;11.27;;;;;;;;;;4394875;32;319563;-89
2023/02/28 02:43:18;;;;;;;20.03;11.37;;;;;;;;;;4406243;32;319450;-89
2023/02/28 02:45:50;;;;;;;22.07;11.20;;;;;;;;;;4393090;32;419567;-89
2023/02/28 02:48:22;;;;;;;20.90;10.73;;;;;;;;;;4393877;32;329660;-88
2023/02/28 02:50:55;;;;;;;21.23;11.93;;;;;;;;;;4405181;32;343511;-89
2023/02/28 02:53:26;;;;;;;24.33;13.27;;;;;;;;;;4395779;32;319416;-88
2023/02/28 02:55:54;;;;;;;34.70;15.63;;;;;;;;;;4405167;32;319454;-89
2023/02/28 02:58:26;;;;;;;29.63;14.97;;;;;;;;;;4394870;32;319551;-89
2023/02/28 03:00:57;;;;;;;33.40;16.60;;;;;;;;;;4406140;32;319555;-89
2023/02/28 03:03:29;;;;;;;33.60;17.80;;;;;;;;;;4396073;32;319367;-88
2023/02/28 03:05:59;;;;;;;18.27;12.87;;;;;;;;;;4404759;32;319385;-89
2023/02/28 03:08:30;;;;;;;17.13;9.53;;;;;;;;;;4395888;32;318442;-88
2023/02/28 03:10:59;;;;;;;14.10;8.87;;;;;;;;;;4405979;32;317552;-89
2023/02/28 03:13:49;;;;;;;17.97;9.87;;;;;;;;;;4394761;32;318419;-89
2023/02/28 03:17:00;;;;;;;19.53;10.93;;;;;;;;;;4395827;32;318136;-88
2023/02/28 03:19:46;;;;;;;21.13;12.47;;;;;;;;;;4357867;32;319051;-89
2023/02/28 03:22:32;;;;;;;19.10;12.03;;;;;;;;;;4404526;32;318733;-89
2023/02/28 03:25:07;;;;;;;19.40;11.87;;;;;;;;;;4404756;32;318693;-89
2023/02/28 03:27:40;;;;;;;25.40;11.33;;;;;;;;;;4393912;32;318748;-89
2023/02/28 03:30:11;;;;;;;16.23;11.37;;;;;;;;;;4405007;32;319512;-88
2023/02/28 03:32:43;;;;;;;17.20;12.30;;;;;;;;;;4392697;32;419758;-89
2023/02/28 03:35:21;;;;;;;22.33;14.63;;;;;;;;;;4404629;32;318590;-88
2023/02/28 03:37:54;;;;;;;24.57;16.30;;;;;;;;;;4391425;32;419419;-89
2023/02/28 03:40:25;;;;;;;55.67;28.30;;;;;;;;;;4395297;32;318466;-88
2023/02/28 03:42:58;;;;;;;47.63;26.73;;;;;;;;;;4405444;32;318582;-88
2023/02/28 03:45:28;;;;;;;25.73;16.50;;;;;;;;;;4395419;32;318674;-88
2023/02/28 03:47:59;;;;;;;21.03;13.50;;;;;;;;;;4404603;32;318822;-89
2023/02/28 03:50:35;;;;;;;23.17;14.07;;;;;;;;;;4394539;32;319221;-89
2023/02/28 03:53:07;;;;;;;24.50;12.83;;;;;;;;;;4405086;32;319191;-89
2023/02/28 03:55:40;;;;;;;18.10;11.43;;;;;;;;;;4394204;32;319242;-88
2023/02/28 03:58:15;;;;;;;24.07;12.90;;;;;;;;;;4403793;32;318621;-89
2023/02/28 04:00:47;;;;;;;27.53;15.30;;;;;;;;;;4376236;32;421699;-89
2023/02/28 04:03:14;;;;;;;37.60;19.30;;;;;;;;;;4385258;32;319231;-89
2023/02/28 04:05:52;;;;;;;28.23;16.57;;;;;;;;;;4390369;32;319329;-89
2023/02/28 04:08:20;;;;;;;25.93;17.00;;;;;;;;;;4380255;32;319174;-89
2023/02/28 04:10:53;;;;;;;26.10;16.10;;;;;;;;;;4388928;32;318726;-88
2023/02/28 04:13:20;;;;;;;22.33;15.03;;;;;;;;;;4378821;32;319662;-89
2023/02/28 04:15:49;;;;;;;32.93;19.07;;;;;;;;;;4388163;32;338080;-89
2023/02/28 04:18:16;;;;;;;36.43;17.70;;;;;;;;;;4378419;32;319158;-89
2023/02/28 04:20:43;;;;;;;25.60;16.63;;;;;;;;;;4389395;32;319233;-88
2023/02/28 04:23:10;;;;;;;32.93;18.03;;;;;;;;;;4389847;32;319125;-89
2023/02/28 04:25:40;;;;;;;40.90;19.40;;;;;;;;;;4379428;32;319354;-88
2023/02/28 04:28:07;;;;;;;32.90;18.80;;;;;;;;;;4389375;32;319326;-89
2023/02/28 04:30:33;;;;;;;30.13;18.70;;;;;;;;;;4379843;32;319340;-88
2023/02/28 04:33:01;;;;;;;34.27;19.97;;;;;;;;;;4389006;32;318539;-90
2023/02/28 04:35:28;;;;;;;42.30;20.90;;;;;;;;;;4381612;32;318417;-89
2023/02/28 04:37:55;;;;;;;38.93;20.73;;;;;;;;;;4391392;32;319250;-88
2023/02/28 04:40:21;;;;;;;42.20;23.57;;;;;;;;;;4380150;32;319432;-88
2023/02/28 04:42:49;;;;;;;43.30;23.87;;;;;;;;;;4388923;32;319449;-88
2023/02/28 04:45:17;;;;;;;52.03;28.67;;;;;;;;;;4379740;32;319225;-88
2023/02/28 04:47:44;;;;;;;64.93;32.30;;;;;;;;;;4390234;32;318366;-89
2023/02/28 04:50:11;;;;;;;95.20;43.63;;;;;;;;;;4389128;32;319137;-89
2023/02/28 04:52:38;;;;;;;60.37;30.93;;;;;;;;;;4380073;32;318368;-88
2023/02/28 04:55:06;;;;;;;61.80;31.90;;;;;;;;;;4389567;32;318786;-89
2023/02/28 04:57:33;;;;;;;50.73;25.40;;;;;;;;;;4378022;32;318809;-89
2023/02/28 05:00:06;;;;;;;60.00;27.07;;;;;;;;;;4389062;32;318438;-89
2023/02/28 05:02:36;;;;;;;67.33;32.87;;;;;;;;;;4379159;32;318745;-88
2023/02/28 05:05:03;;;;;;;70.33;34.20;;;;;;;;;;4389268;32;319330;-89
2023/02/28 05:07:30;;;;;;;65.60;32.63;;;;;;;;;;4378788;32;319006;-87
2023/02/28 05:09:57;;;;;;;63.33;31.80;;;;;;;;;;4388894;32;318562;-89
2023/02/28 05:12:23;;;;;;;61.97;30.93;;;;;;;;;;4377937;32;319406;-88
2023/02/28 05:14:50;;;;;;;59.83;31.73;;;;;;;;;;4387578;32;318822;-86
2023/02/28 05:17:18;;;;;;;62.43;32.03;;;;;;;;;;4379007;32;319150;-87
2023/02/28 05:19:45;;;;;;;68.67;33.00;;;;;;;;;;4388931;32;321694;-87
2023/02/28 05:22:15;;;;;;;71.23;38.00;;;;;;;;;;4389125;32;318623;-88
2023/02/28 05:24:42;;;;;;;60.00;36.63;;;;;;;;;;4384447;32;418625;-88
2023/02/28 05:27:10;;;;;;;54.53;30.47;;;;;;;;;;4401910;32;355308;-88
2023/02/28 05:29:41;;;;;;;61.90;31.77;;;;;;;;;;4392354;32;319553;-87
2023/02/28 05:32:09;;;;;;;82.93;38.77;;;;;;;;;;4403688;32;319324;-88
2023/02/28 05:34:37;;;;;;;108.30;49.60;;;;;;;;;;4393642;32;319594;-88
2023/02/28 05:37:04;;;;;;;107.73;49.90;;;;;;;;;;4401932;32;320400;-88
2023/02/28 05:39:31;;;;;;;148.93;68.93;;;;;;;;;;4391435;32;352959;-88
2023/02/28 05:41:58;;;;;;;391.80;133.60;;;;;;;;;;4402827;32;320823;-88
2023/02/28 05:44:25;;;;;;;315.67;215.67;;;;;;;;;;4393312;32;321256;-90
2023/02/28 05:46:52;;;;;;;54.30;32.73;;;;;;;;;;4403398;32;320878;-88
2023/02/28 05:49:19;;;;;;;37.77;22.77;;;;;;;;;;4393705;32;319599;-88
2023/02/28 05:51:47;;;;;;;28.17;18.00;;;;;;;;;;4403818;32;318560;-87
2023/02/28 05:54:14;;;;;;;29.07;16.47;;;;;;;;;;4393980;32;321076;-87
2023/02/28 05:56:43;;;;;;;49.60;31.10;;;;;;;;;;4403421;32;319418;-88
2023/02/28 05:59:10;;;;;;;59.90;33.80;;;;;;;;;;4402129;32;319005;-87
2023/02/28 06:01:39;;;;;;;165.10;93.80;;;;;;;;;;4392619;32;319156;-87
2023/02/28 06:04:08;;;;;;;29.13;17.37;;;;;;;;;;4403533;32;319628;-88
2023/02/28 06:06:36;;;;;;;62.03;42.93;;;;;;;;;;4392651;32;319513;-87
2023/02/28 06:09:05;;;;;;;37.47;19.63;;;;;;;;;;4402358;32;335825;-89
2023/02/28 06:11:32;;;;;;;48.60;18.77;;;;;;;;;;4392952;32;319652;-87
2023/02/28 06:14:02;;;;;;;49.40;19.30;;;;;;;;;;4401492;32;319185;-87
2023/02/28 06:16:30;;;;;;;35.50;18.30;;;;;;;;;;4393378;32;318987;-88
2023/02/28 06:18:59;;;;;;;26.80;16.23;;;;;;;;;;4401388;32;318958;-90
2023/02/28 06:21:27;;;;;;;39.67;19.53;;;;;;;;;;4392521;32;318771;-89
2023/02/28 06:23:54;;;;;;;29.60;14.83;;;;;;;;;;4401720;32;319220;-88
2023/02/28 06:26:22;;;;;;;24.33;12.80;;;;;;;;;;4392447;32;319482;-88
2023/02/28 06:28:49;;;;;;;40.27;14.07;;;;;;;;;;4402230;32;331248;-88
2023/02/28 06:31:19;;;;;;;34.13;17.10;;;;;;;;;;4390429;32;318607;-87
2023/02/28 06:33:47;;;;;;;40.23;19.87;;;;;;;;;;4402781;32;318491;-87
2023/02/28 06:36:16;;;;;;;44.70;20.33;;;;;;;;;;4393335;32;319213;-88
2023/02/28 06:38:43;;;;;;;35.93;20.77;;;;;;;;;;4402527;32;318791;-88
2023/02/28 06:41:11;;;;;;;48.70;25.50;;;;;;;;;;4401946;32;318851;-88
2023/02/28 06:43:41;;;;;;;58.03;29.77;;;;;;;;;;4391243;32;319412;-87
2023/02/28 06:46:11;;;;;;;55.03;25.40;;;;;;;;;;4402681;32;338512;-88
2023/02/28 07:02:49;;;;;;;42.30;26.90;;;;;;;;;;4394571;32;20277;-81
2023/02/28 07:05:16;;;;;;;51.73;30.70;;;;;;;;;;4367576;32;317799;-78
2023/02/28 07:07:45;;;;;;;55.20;29.63;;;;;;;;;;4380503;32;319212;-79
2023/02/28 07:10:12;;;;;;;50.63;28.83;;;;;;;;;;4366644;32;319405;-78
2023/02/28 07:12:40;;;;;;;45.70;29.77;;;;;;;;;;4381317;32;420074;-85
2023/02/28 07:15:08;;;;;;;51.07;32.83;;;;;;;;;;4393863;32;318600;-81
2023/02/28 07:17:34;;;;;;;53.40;34.60;;;;;;;;;;4382218;32;319295;-88
2023/02/28 07:20:04;;;;;;;51.40;34.70;;;;;;;;;;4394925;32;318735;-81
2023/02/28 07:22:31;;;;;;;56.13;38.93;;;;;;;;;;4385584;32;319840;-84
2023/02/28 07:24:58;;;;;;;49.07;34.50;;;;;;;;;;4395209;32;319236;-83
2023/02/28 07:27:25;;;;;;;40.90;31.43;;;;;;;;;;4383925;32;319902;-86
2023/02/28 07:29:52;;;;;;;56.37;38.00;;;;;;;;;;4395373;32;319314;-87
2023/02/28 07:32:20;;;;;;;61.63;42.77;;;;;;;;;;4383732;32;321770;-83
2023/02/28 07:34:47;;;;;;;66.37;43.13;;;;;;;;;;4392971;32;319226;-84
2023/02/28 07:37:15;;;;;;;64.07;42.33;;;;;;;;;;4391003;32;319133;-83
2023/02/28 07:39:43;;;;;;;58.77;41.20;;;;;;;;;;4394750;32;319529;-81
2023/02/28 07:42:11;;;;;;;64.93;42.87;;;;;;;;;;4394474;32;319807;-82
2023/02/28 07:44:41;;;;;;;66.50;44.03;;;;;;;;;;4385004;32;327679;-84
2023/02/28 07:47:08;;;;;;;131.70;68.53;;;;;;;;;;4393359;32;319549;-83
2023/02/28 07:49:37;;;;;;;68.50;40.20;;;;;;;;;;4383812;32;320395;-85
2023/02/28 07:52:05;;;;;;;68.57;41.30;;;;;;;;;;4394021;32;318450;-83
2023/02/28 07:54:33;;;;;;;67.27;42.73;;;;;;;;;;4378655;32;318608;-82
2023/02/28 07:57:00;;;;;;;78.37;44.33;;;;;;;;;;4402459;32;339747;-80
2023/02/28 07:59:27;;;;;;;75.30;45.20;;;;;;;;;;4384906;32;319373;-82
2023/02/28 08:01:54;;;;;;;76.47;49.20;;;;;;;;;;4406575;32;335245;-81
2023/02/28 08:04:23;;;;;;;87.07;50.43;;;;;;;;;;4380409;32;319254;-80
2023/02/28 08:06:51;;;;;;;73.93;47.60;;;;;;;;;;4383890;32;319182;-83
2023/02/28 08:09:18;;;;;;;56.90;38.23;;;;;;;;;;4369044;32;354323;-83
2023/02/28 08:11:49;;;;;;;62.13;39.20;;;;;;;;;;4383927;32;317825;-81
2023/02/28 08:14:16;;;;;;;71.47;44.33;;;;;;;;;;4352036;32;318790;-85
2023/02/28 08:16:43;;;;;;;69.30;43.77;;;;;;;;;;4385791;32;319498;-84
2023/02/28 08:19:10;;;;;;;61.27;36.80;;;;;;;;;;4383513;32;319640;-84
2023/02/28 08:21:38;;;;;;;63.20;37.73;;;;;;;;;;4372506;32;319357;-83
2023/02/28 08:24:05;;;;;;;83.43;46.87;;;;;;;;;;4382042;32;319429;-84
2023/02/28 08:26:33;;;;;;;71.43;43.20;;;;;;;;;;4374690;32;319192;-80
2023/02/28 08:29:01;;;;;;;76.77;49.67;;;;;;;;;;4381603;32;319027;-82
2023/02/28 08:31:28;;;;;;;90.77;56.80;;;;;;;;;;4372036;32;318952;-83
2023/02/28 08:33:58;;;;;;;124.80;70.53;;;;;;;;;;4379403;32;318634;-84
2023/02/28 08:36:28;;;;;;;68.40;46.83;;;;;;;;;;4357292;32;320036;-78
2023/02/28 08:38:57;;;;;;;65.63;42.47;;;;;;;;;;4365556;32;319525;-88
2023/02/28 08:41:26;;;;;;;61.37;40.00;;;;;;;;;;4358245;32;319308;-78
2023/02/28 08:43:53;;;;;;;63.13;41.23;;;;;;;;;;4367057;32;319296;-87
2023/02/28 08:46:22;;;;;;;275.83;130.00;;;;;;;;;;4357910;32;319395;-83
2023/02/28 08:48:52;;;;;;;71.33;47.87;;;;;;;;;;4368005;32;320945;-84
2023/02/28 08:51:25;;;;;;;63.37;39.07;;;;;;;;;;4362407;32;319481;-82
2023/02/28 08:53:53;;;;;;;86.57;57.40;;;;;;;;;;4384423;32;317635;-80
2023/02/28 08:56:20;;;;;;;51.60;36.37;;;;;;;;;;4385184;32;319585;-84
2023/02/28 08:58:48;;;;;;;44.63;28.90;;;;;;;;;;4394481;32;319758;-86
2023/02/28 09:01:18;;;;;;;43.73;27.63;;;;;;;;;;4387305;32;319720;-83
2023/02/28 09:03:48;;;;;;;48.33;26.43;;;;;;;;;;4392407;32;319434;-84
2023/02/28 09:06:16;;;;;;;43.90;24.30;;;;;;;;;;4373558;32;319900;-84
2023/02/28 09:08:44;;;;;;;52.10;23.67;;;;;;;;;;4382084;32;319346;-85
2023/02/28 09:11:13;;;;;;;45.37;25.33;;;;;;;;;;4383570;32;319838;-80
2023/02/28 09:13:40;;;;;;;39.60;18.13;;;;;;;;;;4368706;32;421706;-87
2023/02/28 09:16:10;;;;;;;43.20;18.00;;;;;;;;;;4383335;32;319094;-83
2023/02/28 09:18:38;;;;;;;45.83;21.93;;;;;;;;;;4370404;32;318585;-85
2023/02/28 09:21:08;;;;;;;37.07;18.67;;;;;;;;;;4378360;32;318736;-92
2023/02/28 09:23:34;;;;;;;46.83;23.70;;;;;;;;;;4375103;32;319033;-94
2023/02/28 09:26:02;;;;;;;47.77;20.67;;;;;;;;;;4386815;32;319234;-86
2023/02/28 09:28:29;;;;;;;54.80;21.03;;;;;;;;;;4374768;32;319391;-92
2023/02/28 09:30:58;;;;;;;43.60;21.83;;;;;;;;;;4383153;32;318876;-87
2023/02/28 09:33:26;;;;;;;55.00;19.33;;;;;;;;;;4372132;32;319278;-81
2023/02/28 09:36:00;;;;;;;42.17;20.67;;;;;;;;;;4380120;32;319396;-80
2023/02/28 09:38:30;;;;;;;35.17;19.57;;;;;;;;;;4366707;32;319329;-81
2023/02/28 09:40:59;;;;;;;42.57;20.87;;;;;;;;;;4377438;32;348279;-79
2023/02/28 09:43:30;;;;;;;48.27;19.37;;;;;;;;;;4368179;32;319119;-84
2023/02/28 09:46:03;;;;;;;35.13;18.67;;;;;;;;;;4378931;32;319405;-78
2023/02/28 09:48:36;;;;;;;41.33;18.37;;;;;;;;;;4369752;32;319180;-78
2023/02/28 09:51:06;;;;;;;46.97;19.60;;;;;;;;;;4383592;32;319257;-79
2023/02/28 09:53:39;;;;;;;32.90;12.90;;;;;;;;;;4373659;32;319303;-81
2023/02/28 09:56:09;;;;;;;47.47;13.50;;;;;;;;;;4382297;32;347723;-80
2023/02/28 09:58:47;;;;;;;41.93;11.67;;;;;;;;;;4372957;32;319688;-81
2023/02/28 10:01:24;;;;;;;37.23;14.60;;;;;;;;;;4371497;32;319309;-84
2023/02/28 10:03:57;;;;;;;40.37;13.10;;;;;;;;;;4377391;32;318400;-80
2023/02/28 10:06:30;;;;;;;42.67;17.53;;;;;;;;;;4380797;32;319246;-81
2023/02/28 10:09:03;;;;;;;38.13;13.93;;;;;;;;;;4382645;32;326434;-79
2023/02/28 10:11:33;;;;;;;31.53;14.40;;;;;;;;;;4372953;32;319395;-80
2023/02/28 10:14:05;;;;;;;49.17;13.53;;;;;;;;;;4382741;32;319443;-78
2023/02/28 10:16:36;;;;;;;65.17;21.67;;;;;;;;;;4372509;32;319479;-80
2023/02/28 10:19:07;;;;;;;42.70;16.93;;;;;;;;;;4382805;32;320138;-79
2023/02/28 10:21:37;;;;;;;28.03;15.23;;;;;;;;;;4372759;32;319408;-81
2023/02/28 10:24:18;;;;;;;30.10;11.70;;;;;;;;;;4382225;32;318022;-83
2023/02/28 10:26:46;;;;;;;39.03;13.33;;;;;;;;;;4368442;32;419131;-82
2023/02/28 10:29:13;;;;;;;36.97;13.77;;;;;;;;;;4382954;32;319370;-81
2023/02/28 10:31:40;;;;;;;38.70;16.20;;;;;;;;;;4385313;32;418186;-80
2023/02/28 10:34:08;;;;;;;31.57;11.90;;;;;;;;;;4403589;32;319566;-81
2023/02/28 10:36:35;;;;;;;33.30;11.80;;;;;;;;;;4393929;32;319391;-82
2023/02/28 10:39:02;;;;;;;29.97;12.10;;;;;;;;;;4405713;32;319320;-81
2023/02/28 10:41:34;;;;;;;27.63;12.20;;;;;;;;;;4381702;32;319146;-81
2023/02/28 10:44:18;;;;;;;35.73;9.87;;;;;;;;;;4370830;32;319280;-86
2023/02/28 10:46:46;;;;;;;52.40;19.83;;;;;;;;;;4355479;32;417768;-82
2023/02/28 10:49:18;;;;;;;53.97;25.77;;;;;;;;;;4366085;32;338949;-83
2023/02/28 10:51:45;;;;;;;44.37;21.30;;;;;;;;;;4352394;32;391759;-80
2023/02/28 10:54:17;;;;;;;46.33;23.80;;;;;;;;;;4366766;32;319595;-83
2023/02/28 10:56:45;;;;;;;56.77;22.47;;;;;;;;;;4354757;32;418344;-81
2023/02/28 10:59:29;;;;;;;41.53;20.97;;;;;;;;;;4367655;32;319324;-81
2023/02/28 11:01:57;;;;;;;36.87;18.23;;;;;;;;;;4354352;32;418424;-85
2023/02/28 11:04:37;;;;;;;44.33;15.87;;;;;;;;;;4366047;32;319286;-81
2023/02/28 11:07:06;;;;;;;48.23;16.07;;;;;;;;;;4381924;32;319739;-82
2023/02/28 11:09:35;;;;;;;41.77;15.63;;;;;;;;;;4370988;32;319464;-80
2023/02/28 11:12:06;;;;;;;40.30;19.57;;;;;;;;;;4382151;32;319278;-82
2023/02/28 11:14:37;;;;;;;64.00;19.87;;;;;;;;;;4372602;32;319356;-85
2023/02/28 11:17:15;;;;;;;62.80;20.80;;;;;;;;;;4380423;32;318732;-85
2023/02/28 11:19:47;;;;;;;48.27;16.63;;;;;;;;;;4368414;32;418542;-82
2023/02/28 11:22:20;;;;;;;51.27;17.23;;;;;;;;;;4379257;32;319366;-83
2023/02/28 11:24:50;;;;;;;49.00;15.77;;;;;;;;;;4381346;32;319554;-84
2023/02/28 11:27:44;;;;;;;43.43;17.30;;;;;;;;;;4380968;32;319305;-80
2023/02/28 11:30:30;;;;;;;51.60;15.00;;;;;;;;;;4397228;32;319511;-82
2023/02/28 11:32:59;;;;;;;47.20;13.77;;;;;;;;;;4382404;32;419778;-82
2023/02/28 11:35:31;;;;;;;48.27;14.43;;;;;;;;;;4386533;32;319447;-80
2023/02/28 11:37:58;;;;;;;57.50;14.50;;;;;;;;;;4396894;32;319194;-81
2023/02/28 11:40:35;;;;;;;51.30;16.37;;;;;;;;;;4387849;32;319272;-82
2023/02/28 11:43:20;;;;;;;51.00;15.03;;;;;;;;;;4383713;32;318441;-86
2023/02/28 11:46:05;;;;;;;54.40;15.37;;;;;;;;;;4370658;32;420776;-80
2023/02/28 11:48:41;;;;;;;56.17;17.03;;;;;;;;;;4374324;32;319330;-82
2023/02/28 11:51:16;;;;;;;50.70;16.57;;;;;;;;;;4381671;32;345019;-80
2023/02/28 11:54:09;;;;;;;54.37;16.63;;;;;;;;;;4370583;32;420743;-82
2023/02/28 11:56:39;;;;;;;42.37;14.30;;;;;;;;;;4373535;32;319227;-80
2023/02/28 11:59:30;;;;;;;48.03;15.37;;;;;;;;;;4382344;32;318539;-82
2023/02/28 12:02:24;;;;;;;53.20;15.97;;;;;;;;;;4370374;32;391609;-84
2023/02/28 12:05:05;;;;;;;50.10;14.43;;;;;;;;;;4359227;32;419126;-81
2023/02/28 12:07:43;;;;;;;48.23;13.73;;;;;;;;;;4363785;32;319286;-81
2023/02/28 12:10:21;;;;;;;39.27;12.90;;;;;;;;;;4383316;32;359377;-81
2023/02/28 12:12:57;;;;;;;43.57;14.67;;;;;;;;;;4370314;32;421241;-80
2023/02/28 12:16:12;;;;;;;43.77;13.47;;;;;;;;;;4372701;32;355857;-83
2023/02/28 12:18:56;;;;;;;45.53;14.03;;;;;;;;;;4370436;32;318567;-81
2023/02/28 12:21:35;;;;;;;42.77;14.63;;;;;;;;;;4373276;32;318817;-81
2023/02/28 12:24:16;;;;;;;56.13;16.47;;;;;;;;;;4398567;32;318572;-82
2023/02/28 12:26:45;;;;;;;56.07;13.63;;;;;;;;;;4386495;32;418486;-83
2023/02/28 12:29:19;;;;;;;51.03;15.17;;;;;;;;;;4399278;32;319367;-82
2023/02/28 12:31:50;;;;;;;50.40;14.80;;;;;;;;;;4385921;32;421248;-81
2023/02/28 12:34:21;;;;;;;50.80;16.23;;;;;;;;;;4389416;32;319258;-79
2023/02/28 12:36:49;;;;;;;42.40;14.40;;;;;;;;;;4398151;32;319436;-81
2023/02/28 12:39:20;;;;;;;51.53;16.07;;;;;;;;;;4387381;32;318568;-82
2023/02/28 12:41:50;;;;;;;52.23;14.70;;;;;;;;;;4376773;32;319244;-83
2023/02/28 12:44:21;;;;;;;65.20;15.63;;;;;;;;;;4358094;32;319402;-85
2023/02/28 12:46:52;;;;;;;40.23;15.40;;;;;;;;;;4369323;32;322223;-80
2023/02/28 12:49:26;;;;;;;65.33;17.27;;;;;;;;;;4356723;32;340816;-79
2023/02/28 12:51:54;;;;;;;61.33;14.93;;;;;;;;;;4368840;32;318810;-79
2023/02/28 12:54:26;;;;;;;38.13;14.03;;;;;;;;;;4359083;32;319281;-81
2023/02/28 12:57:00;;;;;;;59.27;13.97;;;;;;;;;;4366421;32;334420;-80
2023/02/28 12:59:32;;;;;;;47.27;12.03;;;;;;;;;;4358400;32;319319;-79
2023/02/28 13:02:23;;;;;;;38.30;11.07;;;;;;;;;;4367401;32;319220;-82
2023/02/28 13:05:19;;;;;;;67.10;13.63;;;;;;;;;;4367929;32;421300;-80
2023/02/28 13:08:09;;;;;;;37.87;11.27;;;;;;;;;;4369384;32;421076;-80
2023/02/28 13:10:41;;;;;;;46.13;13.87;;;;;;;;;;4374241;32;319350;-81
2023/02/28 13:13:16;;;;;;;56.78;13.52;;;;;;;;;;4381453;32;319218;-80
2023/02/28 13:15:59;;;;;;;61.67;13.77;;;;;;;;;;4371175;32;419461;-82
2023/02/28 13:18:46;;;;;;;62.50;13.83;;;;;;;;;;4377662;32;318972;-81
2023/02/28 13:21:24;;;;;;;45.07;12.77;;;;;;;;;;4382603;32;319161;-81
2023/02/28 13:24:01;;;;;;;38.37;11.83;;;;;;;;;;4369949;32;418581;-81
2023/02/28 13:27:05;;;;;;;56.00;16.40;;;;;;;;;;4373805;32;319466;-81
2023/02/28 13:29:34;;;;;;;49.70;13.23;;;;;;;;;;4373768;32;319166;-80
2023/02/28 13:32:20;;;;;;;62.90;16.00;;;;;;;;;;4383811;32;319280;-81
2023/02/28 13:48:20;;;;;;;76.60;13.63;;;;;;;;;;4439529;31;20387;-80
2023/02/28 13:50:47;;;;;;;53.93;12.90;;;;;;;;;;4396856;32;417493;-81
2023/02/28 13:53:43;;;;;;;55.47;14.43;;;;;;;;;;4410205;32;319475;-81
2023/02/28 13:56:26;;;;;;;70.43;15.37;;;;;;;;;;4421970;32;419925;-81
2023/02/28 13:58:58;;;;;;;43.77;15.17;;;;;;;;;;4412411;32;391498;-80
2023/02/28 14:01:45;;;;;;;47.97;11.52;;;;;;;;;;4407259;32;324782;-81
2023/02/28 14:04:49;;;;;;;69.23;16.10;;;;;;;;;;4423903;32;319483;-81
2023/02/28 14:07:24;;;;;;;56.83;16.97;;;;;;;;;;4411064;32;417692;-81
2023/02/28 14:10:05;;;;;;;52.80;16.53;;;;;;;;;;4426448;32;319683;-82
2023/02/28 14:13:00;;;;;;;59.83;14.17;;;;;;;;;;4402997;32;319825;-80
2023/02/28 14:15:35;;;;;;;45.53;11.93;;;;;;;;;;4400454;32;319712;-80
2023/02/28 14:18:05;;;;;;;48.13;14.83;;;;;;;;;;4410017;32;319554;-80
2023/02/28 14:20:34;;;;;;;47.10;13.20;;;;;;;;;;4397853;32;359688;-80
2023/02/28 14:23:12;;;;;;;46.37;19.20;;;;;;;;;;4408220;32;319919;-81
2023/02/28 14:25:46;;;;;;;50.90;19.20;;;;;;;;;;4400328;32;319322;-80
2023/02/28 14:28:22;;;;;;;72.73;22.33;;;;;;;;;;4409554;32;319327;-80
2023/02/28 14:31:07;;;;;;;72.70;22.73;;;;;;;;;;4397108;32;421143;-85
2023/02/28 14:33:49;;;;;;;74.07;24.33;;;;;;;;;;4398962;32;322978;-81
2023/02/28 14:36:22;;;;;;;68.60;20.20;;;;;;;;;;4398732;32;319452;-79
2023/02/28 14:38:53;;;;;;;53.17;16.37;;;;;;;;;;4408872;32;318717;-83
2023/02/28 14:41:23;;;;;;;44.63;14.80;;;;;;;;;;4407814;32;318843;-80
2023/02/28 14:43:54;;;;;;;68.87;19.97;;;;;;;;;;4424239;32;319677;-83
2023/02/28 14:46:23;;;;;;;52.70;20.10;;;;;;;;;;4414990;32;319408;-79
2023/02/28 14:48:51;;;;;;;64.93;19.93;;;;;;;;;;4414919;32;326445;-80
2023/02/28 14:51:22;;;;;;;58.73;19.60;;;;;;;;;;4403461;32;319401;-85
2023/02/28 14:53:54;;;;;;;61.10;19.27;;;;;;;;;;4414972;32;319506;-85
2023/02/28 14:56:23;;;;;;;78.63;23.63;;;;;;;;;;4404958;32;319741;-81
2023/02/28 14:58:54;;;;;;;79.60;33.37;;;;;;;;;;4412728;32;319020;-85
2023/02/28 15:01:22;;;;;;;59.30;23.83;;;;;;;;;;4389981;32;319374;-82